Time;durP1;ratioP1;P1;durP2;ratioP2;P2;SDS_P1;SDS_P2;PMS_P1;PMS_P2;Temp;Humidity;BMP_temperature;BMP_pressure;BME280_temperature;BME280_humidity;BME280_pressure;Samples;Min_cycle;Max_cycle;Signal;HPM_P1;HPM_P2
2023/12/17 00:02:03;;;;;;;11.10;5.13;;;;;;;;;;5065950;28;20052;-63
2023/12/17 00:04:29;;;;;;;8.52;5.10;;;;;;;;;;5070888;28;20488;-63
2023/12/17 00:06:59;;;;;;;8.73;4.30;;;;;;;;;;5092042;27;20048;-63
2023/12/17 00:09:25;;;;;;;12.90;4.97;;;;;;;;;;5068524;28;20052;-68
2023/12/17 00:11:51;;;;;;;10.32;4.50;;;;;;;;;;5064507;28;20508;-63
2023/12/17 00:14:18;;;;;;;10.05;4.10;;;;;;;;;;5052706;28;20149;-63
2023/12/17 00:16:44;;;;;;;9.38;4.72;;;;;;;;;;5066247;28;20384;-62
2023/12/17 00:19:49;;;;;;;8.75;4.80;;;;;;;;;;5066805;28;20052;-64
2023/12/17 00:23:33;;;;;;;8.65;4.85;;;;;;;;;;5058120;28;20052;-60
2023/12/17 00:27:15;;;;;;;8.00;4.35;;;;;;;;;;5064805;28;20063;-62
2023/12/17 00:30:54;;;;;;;11.05;4.53;;;;;;;;;;5064622;28;20088;-61
2023/12/17 00:34:35;;;;;;;9.35;4.20;;;;;;;;;;5065666;28;20129;-63
2023/12/17 00:38:16;;;;;;;9.45;4.53;;;;;;;;;;5056699;28;20070;-64
2023/12/17 00:41:56;;;;;;;9.65;4.55;;;;;;;;;;5064251;28;20041;-63
2023/12/17 00:45:36;;;;;;;7.65;3.97;;;;;;;;;;5065996;28;20144;-64
2023/12/17 00:49:19;;;;;;;11.98;5.05;;;;;;;;;;5067147;28;20131;-62
2023/12/17 00:53:00;;;;;;;7.47;4.18;;;;;;;;;;5067161;28;20051;-63
2023/12/17 00:56:40;;;;;;;8.98;4.57;;;;;;;;;;5068514;28;20075;-63
2023/12/17 01:00:23;;;;;;;6.75;4.07;;;;;;;;;;5068722;28;20145;-61
2023/12/17 01:04:04;;;;;;;10.73;4.10;;;;;;;;;;5072353;28;20086;-61
2023/12/17 01:07:44;;;;;;;10.93;4.60;;;;;;;;;;5068475;28;20044;-63
2023/12/17 01:11:25;;;;;;;10.35;4.22;;;;;;;;;;5071285;28;20558;-63
2023/12/17 01:15:05;;;;;;;7.50;4.00;;;;;;;;;;5066697;28;20515;-61
2023/12/17 01:18:45;;;;;;;7.70;4.10;;;;;;;;;;5067361;28;20072;-62
2023/12/17 01:22:26;;;;;;;5.78;4.28;;;;;;;;;;5061468;28;20045;-62
2023/12/17 01:26:06;;;;;;;6.13;4.10;;;;;;;;;;5065894;28;20558;-61
2023/12/17 01:29:47;;;;;;;7.40;4.00;;;;;;;;;;5067235;28;20469;-63
2023/12/17 01:33:28;;;;;;;6.95;3.85;;;;;;;;;;5069951;28;20101;-61
2023/12/17 01:37:09;;;;;;;7.43;3.85;;;;;;;;;;5064451;28;20052;-60
2023/12/17 01:40:49;;;;;;;7.60;3.70;;;;;;;;;;5066040;28;20075;-61
2023/12/17 01:44:30;;;;;;;6.90;3.80;;;;;;;;;;5071038;28;20041;-63
2023/12/17 01:48:10;;;;;;;7.18;3.65;;;;;;;;;;5059758;28;20051;-61
2023/12/17 01:51:50;;;;;;;13.02;3.63;;;;;;;;;;5062979;28;20385;-66
2023/12/17 01:55:31;;;;;;;5.82;3.60;;;;;;;;;;5053463;28;20045;-62
2023/12/17 01:59:11;;;;;;;4.95;3.53;;;;;;;;;;5065383;28;20139;-62
2023/12/17 02:02:51;;;;;;;5.78;3.70;;;;;;;;;;5065106;28;20653;-62
2023/12/17 02:06:32;;;;;;;7.80;3.53;;;;;;;;;;5070411;28;20127;-62
2023/12/17 02:10:13;;;;;;;7.22;3.55;;;;;;;;;;5064236;28;20076;-62
2023/12/17 02:13:53;;;;;;;6.00;3.15;;;;;;;;;;5065608;28;20665;-63
2023/12/17 02:17:34;;;;;;;7.88;3.60;;;;;;;;;;5071343;28;20045;-62
2023/12/17 02:21:14;;;;;;;7.45;3.22;;;;;;;;;;5064489;28;20044;-63
2023/12/17 02:24:55;;;;;;;9.35;3.42;;;;;;;;;;5065150;28;20393;-62
2023/12/17 02:28:36;;;;;;;6.85;3.63;;;;;;;;;;5063702;28;20049;-62
2023/12/17 02:32:18;;;;;;;7.60;3.55;;;;;;;;;;5061241;28;20048;-62
2023/12/17 02:35:58;;;;;;;7.43;3.67;;;;;;;;;;5060110;28;20048;-63
2023/12/17 02:39:39;;;;;;;5.68;3.30;;;;;;;;;;5065740;28;20450;-62
2023/12/17 02:43:20;;;;;;;4.63;3.20;;;;;;;;;;5074747;28;20381;-61
2023/12/17 02:47:00;;;;;;;6.28;3.45;;;;;;;;;;5070001;28;20044;-61
2023/12/17 02:50:41;;;;;;;8.45;3.47;;;;;;;;;;5062324;28;20686;-62
2023/12/17 02:54:21;;;;;;;7.50;3.42;;;;;;;;;;5065855;28;20048;-62
2023/12/17 02:58:01;;;;;;;6.18;3.47;;;;;;;;;;5065911;28;20131;-63
2023/12/17 03:01:42;;;;;;;11.15;3.58;;;;;;;;;;5062512;28;20078;-61
2023/12/17 03:05:22;;;;;;;6.63;3.30;;;;;;;;;;5060593;28;20044;-60
2023/12/17 03:09:02;;;;;;;4.65;3.10;;;;;;;;;;5061143;28;20075;-62
2023/12/17 03:12:43;;;;;;;8.57;3.03;;;;;;;;;;5068415;28;20044;-61
2023/12/17 03:16:24;;;;;;;5.15;3.00;;;;;;;;;;5060678;28;20042;-62
2023/12/17 03:20:04;;;;;;;6.15;3.10;;;;;;;;;;5063410;28;20055;-60
2023/12/17 03:23:45;;;;;;;5.82;2.72;;;;;;;;;;5062803;28;20060;-62
2023/12/17 03:27:25;;;;;;;8.45;3.00;;;;;;;;;;5057544;28;20040;-63
2023/12/17 03:31:06;;;;;;;4.18;2.90;;;;;;;;;;5057268;28;20052;-63
2023/12/17 03:34:47;;;;;;;4.35;2.50;;;;;;;;;;5055095;28;20360;-62
2023/12/17 03:38:27;;;;;;;6.38;2.50;;;;;;;;;;5065703;28;20059;-62
2023/12/17 03:42:07;;;;;;;4.97;2.70;;;;;;;;;;5064882;28;20479;-62
2023/12/17 03:45:49;;;;;;;5.57;2.58;;;;;;;;;;5061324;28;20057;-61
2023/12/17 03:49:30;;;;;;;3.75;2.78;;;;;;;;;;5062151;28;20101;-61
2023/12/17 03:53:11;;;;;;;5.05;2.85;;;;;;;;;;5058594;28;20040;-62
2023/12/17 03:56:51;;;;;;;8.38;3.22;;;;;;;;;;5058314;28;20174;-62
2023/12/17 04:00:32;;;;;;;5.10;2.70;;;;;;;;;;5057840;28;20072;-61
2023/12/17 04:04:13;;;;;;;3.95;2.65;;;;;;;;;;5062419;28;20067;-63
2023/12/17 04:07:53;;;;;;;3.60;2.50;;;;;;;;;;5056388;28;20131;-61
2023/12/17 04:11:33;;;;;;;4.72;2.90;;;;;;;;;;5062885;28;20595;-61
2023/12/17 04:15:15;;;;;;;5.80;2.83;;;;;;;;;;5058241;28;20504;-61
2023/12/17 04:18:55;;;;;;;3.47;2.40;;;;;;;;;;5061814;28;20063;-61
2023/12/17 04:22:35;;;;;;;5.63;2.83;;;;;;;;;;5055651;28;20101;-61
2023/12/17 04:26:16;;;;;;;7.68;2.85;;;;;;;;;;5063232;28;20060;-60
2023/12/17 04:29:56;;;;;;;4.43;2.80;;;;;;;;;;5062833;28;20084;-66
2023/12/17 04:33:38;;;;;;;4.47;2.72;;;;;;;;;;5058736;28;20526;-63
2023/12/17 04:37:18;;;;;;;6.72;3.10;;;;;;;;;;5061607;28;20146;-62
2023/12/17 04:40:58;;;;;;;7.38;3.05;;;;;;;;;;5060292;28;20090;-62
2023/12/17 04:44:38;;;;;;;5.82;3.38;;;;;;;;;;5064748;28;20489;-62
2023/12/17 04:48:19;;;;;;;4.80;2.90;;;;;;;;;;5056212;28;20497;-61
2023/12/17 04:51:59;;;;;;;4.45;2.72;;;;;;;;;;5063826;28;20053;-62
2023/12/17 04:55:39;;;;;;;5.13;2.97;;;;;;;;;;5062739;28;20048;-62
2023/12/17 04:59:20;;;;;;;5.57;3.03;;;;;;;;;;5066419;28;20047;-64
2023/12/17 05:03:00;;;;;;;5.97;3.00;;;;;;;;;;5067133;28;20044;-62
2023/12/17 05:06:40;;;;;;;6.20;3.00;;;;;;;;;;5059364;28;20496;-62
2023/12/17 05:10:21;;;;;;;5.32;3.17;;;;;;;;;;5056649;28;20059;-61
2023/12/17 05:14:01;;;;;;;6.80;2.70;;;;;;;;;;5062158;28;20123;-59
2023/12/17 05:17:43;;;;;;;4.82;2.60;;;;;;;;;;5056626;28;20123;-60
2023/12/17 05:21:24;;;;;;;5.28;2.80;;;;;;;;;;5061707;28;20389;-63
2023/12/17 05:25:06;;;;;;;4.90;2.47;;;;;;;;;;5067250;28;20483;-62
2023/12/17 05:28:48;;;;;;;7.45;2.22;;;;;;;;;;5064720;28;20127;-61
2023/12/17 05:32:28;;;;;;;5.10;2.55;;;;;;;;;;5063269;28;20503;-60
2023/12/17 05:36:09;;;;;;;3.53;2.30;;;;;;;;;;5063481;28;20271;-61
2023/12/17 05:39:49;;;;;;;3.15;2.08;;;;;;;;;;5061919;28;20048;-64
2023/12/17 05:43:30;;;;;;;3.60;2.28;;;;;;;;;;5059489;28;20058;-60
2023/12/17 05:47:10;;;;;;;5.25;2.25;;;;;;;;;;5059581;28;20473;-60
2023/12/17 05:50:50;;;;;;;4.28;2.05;;;;;;;;;;5060409;28;20044;-62
2023/12/17 05:54:30;;;;;;;4.30;2.25;;;;;;;;;;5066426;28;20076;-61
2023/12/17 05:58:11;;;;;;;5.70;1.92;;;;;;;;;;5062990;28;20040;-61
2023/12/17 06:01:51;;;;;;;5.65;2.05;;;;;;;;;;5059173;28;20033;-61
2023/12/17 06:05:32;;;;;;;3.63;1.90;;;;;;;;;;5063354;28;20032;-62
2023/12/17 06:09:12;;;;;;;3.30;2.13;;;;;;;;;;5067911;28;20123;-61
2023/12/17 06:12:52;;;;;;;2.95;1.98;;;;;;;;;;5064520;28;20051;-62
2023/12/17 06:16:35;;;;;;;2.42;1.70;;;;;;;;;;5065700;28;20041;-62
2023/12/17 06:20:16;;;;;;;3.22;1.63;;;;;;;;;;5068959;28;20053;-61
2023/12/17 06:23:57;;;;;;;2.40;1.63;;;;;;;;;;5069944;28;20053;-62
2023/12/17 06:27:36;;;;;;;4.72;1.98;;;;;;;;;;5063356;28;20048;-62
2023/12/17 06:31:18;;;;;;;5.28;1.70;;;;;;;;;;5059838;28;20044;-61
2023/12/17 06:34:58;;;;;;;2.92;1.70;;;;;;;;;;5062509;28;20052;-63
2023/12/17 06:38:39;;;;;;;1.88;1.35;;;;;;;;;;5062035;28;20061;-61
2023/12/17 06:42:25;;;;;;;3.13;1.65;;;;;;;;;;5062537;28;20446;-63
2023/12/17 06:46:06;;;;;;;3.33;1.60;;;;;;;;;;5065795;28;20072;-63
2023/12/17 06:49:45;;;;;;;2.95;1.85;;;;;;;;;;5062436;28;20037;-61
2023/12/17 06:53:27;;;;;;;3.70;1.58;;;;;;;;;;5063500;28;20048;-61
2023/12/17 06:57:07;;;;;;;2.75;2.08;;;;;;;;;;5065021;28;20045;-61
2023/12/17 07:00:48;;;;;;;2.47;1.45;;;;;;;;;;5071165;28;20074;-62
2023/12/17 07:04:28;;;;;;;2.97;1.40;;;;;;;;;;5066376;28;20392;-60
2023/12/17 07:08:08;;;;;;;2.10;1.50;;;;;;;;;;5061471;28;20404;-61
2023/12/17 07:11:49;;;;;;;4.30;1.60;;;;;;;;;;5065441;28;20055;-64
2023/12/17 07:15:29;;;;;;;2.90;1.60;;;;;;;;;;5066212;28;20048;-62
2023/12/17 07:19:09;;;;;;;4.40;1.58;;;;;;;;;;5060090;28;20122;-62
2023/12/17 07:22:50;;;;;;;3.33;1.60;;;;;;;;;;5061858;28;20390;-64
2023/12/17 07:26:30;;;;;;;1.95;1.45;;;;;;;;;;5055920;28;20040;-62
2023/12/17 07:30:11;;;;;;;2.65;1.70;;;;;;;;;;5064285;28;20094;-62
2023/12/17 07:33:51;;;;;;;1.95;1.38;;;;;;;;;;5062281;28;20450;-62
2023/12/17 07:37:32;;;;;;;3.40;1.50;;;;;;;;;;5062233;28;20147;-62
2023/12/17 07:41:12;;;;;;;2.75;1.40;;;;;;;;;;5058813;28;20045;-64
2023/12/17 07:44:52;;;;;;;7.22;1.60;;;;;;;;;;5059414;28;20084;-59
2023/12/17 07:48:34;;;;;;;5.25;1.65;;;;;;;;;;5057105;28;20607;-63
2023/12/17 07:52:15;;;;;;;5.78;2.65;;;;;;;;;;5054140;28;20373;-64
2023/12/17 07:55:57;;;;;;;6.03;1.75;;;;;;;;;;5060861;28;20057;-65
2023/12/17 07:59:36;;;;;;;2.60;1.30;;;;;;;;;;5056785;28;20049;-63
2023/12/17 08:03:16;;;;;;;3.90;1.75;;;;;;;;;;5062501;28;20170;-61
2023/12/17 08:06:57;;;;;;;3.67;1.60;;;;;;;;;;5052043;28;20065;-62
2023/12/17 08:10:38;;;;;;;2.47;1.70;;;;;;;;;;5054546;28;20099;-63
2023/12/17 08:14:19;;;;;;;2.13;1.40;;;;;;;;;;5056044;28;20048;-66
2023/12/17 08:17:59;;;;;;;4.38;1.95;;;;;;;;;;5059674;28;20040;-65
2023/12/17 08:21:41;;;;;;;8.10;1.60;;;;;;;;;;5059214;28;20057;-64
2023/12/17 08:25:21;;;;;;;3.53;1.90;;;;;;;;;;5063820;28;20078;-61
2023/12/17 08:29:01;;;;;;;3.00;1.85;;;;;;;;;;5055769;28;20056;-61
2023/12/17 08:32:45;;;;;;;2.35;1.48;;;;;;;;;;5057253;28;20048;-61
2023/12/17 08:36:27;;;;;;;5.72;1.90;;;;;;;;;;5059549;28;20453;-63
2023/12/17 08:40:06;;;;;;;3.22;1.90;;;;;;;;;;5060651;28;20057;-61
2023/12/17 08:43:47;;;;;;;4.32;2.58;;;;;;;;;;5062143;28;20054;-64
2023/12/17 08:47:27;;;;;;;8.23;2.65;;;;;;;;;;5058821;28;20130;-63
2023/12/17 08:51:07;;;;;;;6.20;2.65;;;;;;;;;;5061260;28;20043;-65
2023/12/17 08:54:47;;;;;;;5.93;2.20;;;;;;;;;;5064373;28;20045;-63
2023/12/17 08:58:31;;;;;;;6.10;3.50;;;;;;;;;;5063422;28;20049;-65
2023/12/17 09:02:11;;;;;;;6.72;4.28;;;;;;;;;;5064646;28;20060;-64
2023/12/17 09:05:51;;;;;;;4.25;2.47;;;;;;;;;;5055422;28;20048;-64
2023/12/17 09:09:14;;;;;;;4.88;2.08;;;;;;;;;;5062140;28;20140;-64
2023/12/17 09:12:54;;;;;;;3.05;2.00;;;;;;;;;;5052700;28;20048;-65
2023/12/17 09:16:35;;;;;;;4.55;2.05;;;;;;;;;;5057083;28;20479;-66
2023/12/17 09:20:15;;;;;;;5.60;2.20;;;;;;;;;;5056218;28;20052;-64
2023/12/17 09:23:57;;;;;;;4.03;2.20;;;;;;;;;;5060505;28;20074;-64
2023/12/17 09:27:38;;;;;;;9.35;2.17;;;;;;;;;;5057072;28;20080;-63
2023/12/17 09:31:18;;;;;;;4.28;1.95;;;;;;;;;;5064861;28;20052;-65
2023/12/17 09:34:58;;;;;;;7.05;2.10;;;;;;;;;;5055587;28;20416;-64
2023/12/17 09:38:42;;;;;;;3.38;2.05;;;;;;;;;;5056143;28;20125;-65
2023/12/17 09:42:21;;;;;;;3.67;2.13;;;;;;;;;;5067496;28;20071;-65
2023/12/17 09:46:02;;;;;;;6.50;2.40;;;;;;;;;;5060932;28;20052;-63
2023/12/17 09:49:42;;;;;;;4.07;2.05;;;;;;;;;;5056414;28;20047;-64
2023/12/17 09:53:22;;;;;;;3.95;2.17;;;;;;;;;;5062919;28;20160;-65
2023/12/17 09:57:08;;;;;;;3.97;2.33;;;;;;;;;;5056631;28;20036;-62
2023/12/17 10:00:48;;;;;;;6.53;2.65;;;;;;;;;;5055091;28;20041;-63
2023/12/17 10:04:29;;;;;;;8.23;2.55;;;;;;;;;;5057348;28;20056;-65
2023/12/17 10:08:09;;;;;;;4.13;2.50;;;;;;;;;;5046806;28;20044;-63
2023/12/17 10:11:51;;;;;;;5.70;2.72;;;;;;;;;;5048769;28;20060;-69
2023/12/17 10:15:32;;;;;;;6.78;3.05;;;;;;;;;;5063450;28;20049;-63
2023/12/17 10:19:13;;;;;;;9.20;3.08;;;;;;;;;;5055279;28;20041;-64
2023/12/17 10:22:56;;;;;;;6.75;3.05;;;;;;;;;;5061868;28;20365;-63
2023/12/17 10:26:39;;;;;;;7.75;3.15;;;;;;;;;;5067361;28;20049;-63
2023/12/17 10:30:19;;;;;;;8.80;3.22;;;;;;;;;;5066448;28;20063;-65
2023/12/17 10:34:00;;;;;;;11.88;4.47;;;;;;;;;;5064022;28;20118;-62
2023/12/17 10:37:40;;;;;;;14.57;4.82;;;;;;;;;;5060495;28;20489;-64
2023/12/17 10:41:21;;;;;;;11.25;4.80;;;;;;;;;;5064485;28;20147;-65
2023/12/17 10:45:01;;;;;;;15.57;4.93;;;;;;;;;;5059759;28;20117;-65
2023/12/17 10:48:41;;;;;;;15.63;5.32;;;;;;;;;;5060540;28;20059;-64
2023/12/17 10:52:24;;;;;;;13.25;4.70;;;;;;;;;;5058801;28;20048;-64
2023/12/17 10:56:05;;;;;;;8.40;3.13;;;;;;;;;;5060843;28;20063;-62
2023/12/17 10:59:45;;;;;;;6.82;3.45;;;;;;;;;;5061446;28;20085;-62
2023/12/17 11:03:26;;;;;;;11.27;3.15;;;;;;;;;;5066665;28;20260;-60
2023/12/17 11:07:06;;;;;;;6.30;2.90;;;;;;;;;;5060251;28;20040;-63
2023/12/17 11:10:46;;;;;;;14.40;3.03;;;;;;;;;;5057356;28;20454;-61
2023/12/17 11:14:27;;;;;;;8.10;3.28;;;;;;;;;;5055258;28;20563;-64
2023/12/17 11:18:11;;;;;;;6.85;2.67;;;;;;;;;;5055399;27;20552;-65
2023/12/17 11:21:52;;;;;;;4.82;2.30;;;;;;;;;;5061364;28;20040;-61
2023/12/17 11:25:33;;;;;;;6.32;2.70;;;;;;;;;;5054751;28;20135;-62
2023/12/17 11:29:13;;;;;;;9.85;2.20;;;;;;;;;;5059986;28;20059;-61
2023/12/17 11:32:53;;;;;;;5.55;2.13;;;;;;;;;;5057210;28;20516;-61
2023/12/17 11:36:34;;;;;;;4.97;2.30;;;;;;;;;;5051356;28;20049;-65
2023/12/17 11:40:16;;;;;;;10.38;4.97;;;;;;;;;;5055774;28;20059;-66
2023/12/17 11:43:55;;;;;;;7.30;1.98;;;;;;;;;;5047974;28;20540;-68
2023/12/17 11:47:35;;;;;;;6.28;2.50;;;;;;;;;;5048440;28;20040;-63
2023/12/17 11:51:21;;;;;;;9.10;3.55;;;;;;;;;;5048740;28;20040;-65
2023/12/17 11:55:03;;;;;;;7.40;2.20;;;;;;;;;;5064456;28;20055;-66
2023/12/17 11:58:42;;;;;;;4.18;1.90;;;;;;;;;;5060881;28;20092;-66
2023/12/17 12:02:22;;;;;;;5.00;2.33;;;;;;;;;;5052821;28;20051;-64
2023/12/17 12:06:08;;;;;;;6.20;1.70;;;;;;;;;;5050920;28;20055;-63
2023/12/17 12:09:48;;;;;;;5.45;1.75;;;;;;;;;;5059793;28;20048;-66
2023/12/17 12:13:43;;;;;;;5.93;1.70;;;;;;;;;;5058740;28;20247;-64
2023/12/17 12:17:26;;;;;;;4.22;1.80;;;;;;;;;;5060654;28;20712;-68
2023/12/17 12:21:13;;;;;;;3.10;1.88;;;;;;;;;;5048623;28;20097;-64
2023/12/17 12:24:55;;;;;;;4.53;1.77;;;;;;;;;;5046871;28;20056;-64
2023/12/17 12:28:37;;;;;;;3.95;1.75;;;;;;;;;;5056319;28;20471;-63
2023/12/17 12:32:17;;;;;;;3.17;1.45;;;;;;;;;;5052446;28;20143;-65
2023/12/17 12:36:00;;;;;;;8.35;1.90;;;;;;;;;;5051945;28;20072;-67
2023/12/17 12:39:44;;;;;;;4.65;1.88;;;;;;;;;;5055793;28;20392;-65
2023/12/17 12:43:28;;;;;;;4.15;2.17;;;;;;;;;;5051492;28;20040;-64
2023/12/17 12:47:09;;;;;;;6.30;2.00;;;;;;;;;;5046751;28;20041;-66
2023/12/17 12:50:50;;;;;;;7.20;1.67;;;;;;;;;;5042994;28;20041;-60
2023/12/17 12:54:30;;;;;;;4.55;2.15;;;;;;;;;;5063300;28;20068;-64
2023/12/17 12:58:11;;;;;;;7.38;2.40;;;;;;;;;;5062638;28;20482;-67
2023/12/17 13:01:51;;;;;;;5.50;2.15;;;;;;;;;;5049962;28;20056;-69
2023/12/17 13:05:32;;;;;;;5.68;2.13;;;;;;;;;;5064338;28;20123;-67
2023/12/17 13:09:12;;;;;;;6.47;2.35;;;;;;;;;;5061072;28;20485;-69
2023/12/17 13:12:53;;;;;;;5.22;2.38;;;;;;;;;;5062860;28;20090;-68
2023/12/17 13:16:35;;;;;;;8.98;2.05;;;;;;;;;;5065940;28;20059;-67
2023/12/17 13:20:16;;;;;;;5.63;2.33;;;;;;;;;;5071269;28;20040;-66
2023/12/17 13:23:57;;;;;;;9.40;1.80;;;;;;;;;;5063763;28;20052;-69
2023/12/17 13:27:39;;;;;;;5.88;2.08;;;;;;;;;;5070097;28;20044;-65
2023/12/17 13:31:19;;;;;;;11.30;2.40;;;;;;;;;;5066940;28;20159;-67
2023/12/17 13:35:01;;;;;;;5.68;2.20;;;;;;;;;;5060770;28;20049;-69
2023/12/17 13:38:41;;;;;;;6.45;2.20;;;;;;;;;;5065075;28;20073;-68
2023/12/17 13:42:22;;;;;;;5.82;2.38;;;;;;;;;;5063307;28;20036;-66
2023/12/17 13:46:02;;;;;;;4.38;2.60;;;;;;;;;;5061582;28;20113;-66
2023/12/17 13:49:44;;;;;;;5.32;2.67;;;;;;;;;;5067072;28;20480;-67
2023/12/17 13:53:24;;;;;;;7.07;2.60;;;;;;;;;;5059275;28;20044;-67
2023/12/17 13:57:04;;;;;;;5.82;2.20;;;;;;;;;;5065523;28;20055;-69
2023/12/17 14:00:45;;;;;;;8.98;2.78;;;;;;;;;;5072280;28;20044;-67
2023/12/17 14:04:26;;;;;;;8.73;2.90;;;;;;;;;;5055265;28;20083;-70
2023/12/17 14:08:06;;;;;;;18.15;3.00;;;;;;;;;;5048602;28;20041;-65
2023/12/17 14:11:47;;;;;;;8.60;2.88;;;;;;;;;;5055754;28;20045;-66
2023/12/17 14:15:28;;;;;;;8.35;2.83;;;;;;;;;;5060550;28;20059;-70
2023/12/17 14:19:10;;;;;;;9.38;2.85;;;;;;;;;;5061864;28;20079;-66
2023/12/17 14:22:49;;;;;;;16.73;3.47;;;;;;;;;;5056585;28;20748;-63
2023/12/17 14:26:30;;;;;;;6.72;2.70;;;;;;;;;;5054691;28;20119;-67
2023/12/17 14:30:12;;;;;;;7.13;2.22;;;;;;;;;;5061040;28;20582;-63
2023/12/17 14:33:50;;;;;;;4.45;2.28;;;;;;;;;;5058158;28;20052;-67
2023/12/17 14:37:32;;;;;;;9.00;2.35;;;;;;;;;;5062571;28;20097;-67
2023/12/17 14:41:13;;;;;;;3.70;1.80;;;;;;;;;;5061378;28;20083;-65
2023/12/17 14:44:55;;;;;;;7.45;2.08;;;;;;;;;;5054299;28;20055;-67
2023/12/17 14:48:35;;;;;;;7.00;1.98;;;;;;;;;;5058451;28;20040;-66
2023/12/17 14:52:16;;;;;;;11.32;2.30;;;;;;;;;;5056170;28;20105;-64
2023/12/17 14:55:56;;;;;;;5.88;1.52;;;;;;;;;;5058304;28;20511;-65
2023/12/17 14:59:36;;;;;;;3.53;1.70;;;;;;;;;;5053200;28;20056;-63
2023/12/17 15:03:18;;;;;;;6.35;2.50;;;;;;;;;;5054138;28;20050;-66
2023/12/17 15:06:58;;;;;;;7.22;2.47;;;;;;;;;;5050432;28;20052;-66
2023/12/17 15:10:40;;;;;;;6.55;1.90;;;;;;;;;;5060054;28;20052;-67
2023/12/17 15:14:22;;;;;;;5.28;2.40;;;;;;;;;;5056006;28;20830;-65
2023/12/17 15:18:02;;;;;;;4.63;1.90;;;;;;;;;;5060256;28;20048;-65
2023/12/17 15:21:42;;;;;;;3.95;1.80;;;;;;;;;;5054862;28;20072;-69
2023/12/17 15:25:24;;;;;;;3.25;1.48;;;;;;;;;;5051419;27;20359;-69
2023/12/17 15:29:04;;;;;;;5.30;1.80;;;;;;;;;;5048448;28;20040;-73
2023/12/17 15:32:08;;;;;;;3.75;1.67;;;;;;;;;;5058313;28;20045;-64
2023/12/17 15:34:35;;;;;;;5.57;1.90;;;;;;;;;;5057059;28;20060;-66
2023/12/17 15:37:02;;;;;;;4.55;2.00;;;;;;;;;;5054331;28;20045;-63
2023/12/17 15:39:28;;;;;;;5.68;1.70;;;;;;;;;;5051664;28;20835;-68
2023/12/17 15:42:34;;;;;;;4.03;1.90;;;;;;;;;;5052731;28;20492;-65
2023/12/17 15:46:14;;;;;;;6.18;1.70;;;;;;;;;;5067850;28;20276;-64
2023/12/17 15:49:55;;;;;;;3.53;1.80;;;;;;;;;;5063151;28;20052;-65
2023/12/17 15:53:35;;;;;;;4.00;1.63;;;;;;;;;;5066930;28;20503;-65
2023/12/17 15:57:15;;;;;;;4.28;1.60;;;;;;;;;;5062302;28;20102;-64
2023/12/17 16:00:57;;;;;;;4.30;1.80;;;;;;;;;;5064071;28;20115;-64
2023/12/17 16:04:36;;;;;;;4.80;1.95;;;;;;;;;;5059089;28;20206;-67
2023/12/17 16:08:17;;;;;;;2.88;1.42;;;;;;;;;;5064592;28;20055;-65
2023/12/17 16:12:00;;;;;;;4.50;2.00;;;;;;;;;;5053752;28;20048;-65
2023/12/17 16:15:40;;;;;;;3.25;1.67;;;;;;;;;;5061775;28;20084;-65
2023/12/17 16:19:20;;;;;;;4.30;1.63;;;;;;;;;;5067363;28;20127;-65
2023/12/17 16:23:01;;;;;;;3.85;1.67;;;;;;;;;;5062030;28;20104;-65
2023/12/17 16:26:41;;;;;;;3.85;1.67;;;;;;;;;;5050747;28;20060;-67
2023/12/17 16:30:21;;;;;;;4.07;1.50;;;;;;;;;;5060380;28;20067;-64
2023/12/17 16:34:03;;;;;;;5.25;1.48;;;;;;;;;;5063752;28;20064;-68
2023/12/17 16:37:45;;;;;;;4.47;2.10;;;;;;;;;;5067438;28;20128;-63
2023/12/17 16:41:25;;;;;;;6.35;1.73;;;;;;;;;;5063269;28;20048;-66
2023/12/17 16:45:06;;;;;;;4.93;1.90;;;;;;;;;;5072090;28;20525;-64
2023/12/17 16:48:47;;;;;;;4.53;1.58;;;;;;;;;;5055079;28;20072;-67
2023/12/17 16:52:28;;;;;;;8.63;2.20;;;;;;;;;;5059902;28;20056;-66
2023/12/17 16:56:08;;;;;;;7.80;2.22;;;;;;;;;;5064230;28;20048;-65
2023/12/17 16:59:48;;;;;;;9.55;3.10;;;;;;;;;;5058489;28;20041;-64
2023/12/17 17:03:30;;;;;;;7.65;1.95;;;;;;;;;;5058842;28;20065;-65
2023/12/17 17:07:15;;;;;;;5.93;2.08;;;;;;;;;;5057653;28;20528;-64
2023/12/17 17:10:53;;;;;;;5.78;1.80;;;;;;;;;;5059871;28;20419;-64
2023/12/17 17:14:34;;;;;;;4.88;2.03;;;;;;;;;;5057187;28;20089;-64
2023/12/17 17:18:14;;;;;;;3.92;1.95;;;;;;;;;;5066596;28;20480;-66
2023/12/17 17:21:54;;;;;;;4.53;2.00;;;;;;;;;;5061462;28;20048;-65
2023/12/17 17:25:38;;;;;;;4.15;1.80;;;;;;;;;;5069902;28;20075;-68
2023/12/17 17:29:17;;;;;;;4.20;2.10;;;;;;;;;;5065792;28;20127;-65
2023/12/17 17:32:59;;;;;;;8.15;2.50;;;;;;;;;;5065536;28;20084;-63
2023/12/17 17:36:39;;;;;;;7.90;2.28;;;;;;;;;;5067253;28;20077;-65
2023/12/17 17:40:21;;;;;;;3.42;2.15;;;;;;;;;;5062371;28;20448;-68
2023/12/17 17:44:06;;;;;;;6.78;2.63;;;;;;;;;;5063239;28;20500;-69
2023/12/17 17:47:46;;;;;;;7.97;2.40;;;;;;;;;;5065254;28;20052;-66
2023/12/17 17:51:27;;;;;;;4.85;2.42;;;;;;;;;;5059997;28;20043;-65
2023/12/17 17:55:07;;;;;;;10.25;3.45;;;;;;;;;;5063488;28;20143;-64
2023/12/17 17:58:50;;;;;;;5.40;2.35;;;;;;;;;;5065354;28;20354;-67
2023/12/17 18:02:30;;;;;;;6.30;2.25;;;;;;;;;;5064431;28;20048;-65
2023/12/17 18:06:10;;;;;;;6.30;2.42;;;;;;;;;;5065673;28;20127;-67
2023/12/17 18:09:51;;;;;;;10.20;2.80;;;;;;;;;;5065547;28;20209;-63
2023/12/17 18:13:33;;;;;;;6.40;2.55;;;;;;;;;;5062366;28;20052;-64
2023/12/17 18:17:17;;;;;;;5.53;2.30;;;;;;;;;;5066604;28;20072;-65
2023/12/17 18:20:57;;;;;;;4.15;2.50;;;;;;;;;;5056054;28;20178;-66
2023/12/17 18:24:38;;;;;;;14.48;7.00;;;;;;;;;;5062232;28;20075;-65
2023/12/17 18:28:18;;;;;;;13.15;4.82;;;;;;;;;;5061079;28;20462;-64
2023/12/17 18:31:58;;;;;;;6.80;2.90;;;;;;;;;;5058926;27;20049;-63
2023/12/17 18:35:39;;;;;;;5.80;2.50;;;;;;;;;;5058139;28;20051;-63
2023/12/17 18:39:19;;;;;;;7.80;3.22;;;;;;;;;;5064414;28;20054;-64
2023/12/17 18:42:59;;;;;;;6.55;3.28;;;;;;;;;;5067051;28;20052;-66
2023/12/17 18:46:40;;;;;;;8.30;2.95;;;;;;;;;;5062230;28;20377;-64
2023/12/17 18:50:20;;;;;;;5.22;2.90;;;;;;;;;;5061233;28;20051;-64
2023/12/17 18:54:02;;;;;;;6.45;3.13;;;;;;;;;;5055196;28;20076;-66
2023/12/17 18:57:43;;;;;;;6.03;2.92;;;;;;;;;;5057106;28;20103;-67
2023/12/17 19:01:24;;;;;;;6.82;3.42;;;;;;;;;;5057025;28;20079;-64
2023/12/17 19:05:06;;;;;;;9.77;3.47;;;;;;;;;;5055788;28;20119;-64
2023/12/17 19:08:47;;;;;;;9.52;3.20;;;;;;;;;;5063441;28;20076;-64
2023/12/17 19:12:27;;;;;;;8.45;3.53;;;;;;;;;;5059875;28;20055;-69
2023/12/17 19:16:08;;;;;;;14.65;4.38;;;;;;;;;;5060160;28;20412;-64
2023/12/17 19:19:48;;;;;;;10.07;4.85;;;;;;;;;;5058380;28;20155;-64
2023/12/17 19:23:28;;;;;;;13.18;4.88;;;;;;;;;;5056949;28;20055;-65
2023/12/17 19:27:12;;;;;;;12.38;4.65;;;;;;;;;;5055112;28;20052;-65
2023/12/17 19:31:10;;;;;;;11.05;3.85;;;;;;;;;;5049887;28;20113;-65
2023/12/17 19:34:54;;;;;;;14.57;4.82;;;;;;;;;;5052285;28;20048;-66
2023/12/17 19:38:34;;;;;;;11.98;4.03;;;;;;;;;;5054683;28;20052;-66
2023/12/17 19:42:15;;;;;;;12.27;4.95;;;;;;;;;;5063079;28;20052;-66
2023/12/17 19:45:57;;;;;;;12.65;4.88;;;;;;;;;;5058245;28;20202;-66
2023/12/17 19:49:42;;;;;;;14.95;5.60;;;;;;;;;;5058343;28;20071;-66
2023/12/17 19:53:25;;;;;;;12.50;5.95;;;;;;;;;;5055185;28;20060;-64
2023/12/17 19:57:08;;;;;;;11.73;5.97;;;;;;;;;;5055123;28;20041;-65
2023/12/17 20:00:47;;;;;;;11.20;5.65;;;;;;;;;;5059005;28;20573;-63
2023/12/17 20:04:28;;;;;;;15.05;6.30;;;;;;;;;;5053747;28;20044;-65
2023/12/17 20:08:10;;;;;;;12.30;6.15;;;;;;;;;;5053167;28;20352;-64
2023/12/17 20:11:51;;;;;;;11.93;5.65;;;;;;;;;;5059725;28;20050;-65
2023/12/17 20:15:32;;;;;;;17.92;7.40;;;;;;;;;;5058559;28;20048;-69
2023/12/17 20:19:15;;;;;;;17.27;7.88;;;;;;;;;;5061880;28;20063;-64
2023/12/17 20:22:56;;;;;;;19.35;9.77;;;;;;;;;;5051162;28;20063;-63
2023/12/17 20:26:36;;;;;;;17.15;8.93;;;;;;;;;;5058699;28;20056;-66
2023/12/17 20:30:16;;;;;;;20.10;8.68;;;;;;;;;;5054181;28;20539;-65
2023/12/17 20:33:57;;;;;;;14.70;8.02;;;;;;;;;;5051816;28;20083;-64
2023/12/17 20:37:40;;;;;;;17.13;8.68;;;;;;;;;;5054955;28;20525;-63
2023/12/17 20:41:22;;;;;;;17.58;8.13;;;;;;;;;;5052008;28;20045;-64
2023/12/17 20:45:04;;;;;;;17.77;9.10;;;;;;;;;;5053535;28;20496;-66
2023/12/17 20:48:48;;;;;;;15.85;8.23;;;;;;;;;;5052540;28;20040;-66
2023/12/17 20:52:28;;;;;;;19.75;9.05;;;;;;;;;;5046731;28;20132;-65
2023/12/17 20:55:31;;;;;;;21.05;8.57;;;;;;;;;;5031082;28;20640;-69
2023/12/17 20:58:55;;;;;;;16.20;8.45;;;;;;;;;;5052356;28;20496;-66
2023/12/17 21:02:32;;;;;;;19.83;9.60;;;;;;;;;;5060258;28;20098;-65
2023/12/17 21:06:17;;;;;;;17.65;10.00;;;;;;;;;;5059531;28;20634;-65
2023/12/17 21:09:56;;;;;;;22.23;11.00;;;;;;;;;;5062397;28;20129;-65
2023/12/17 21:13:37;;;;;;;21.65;12.13;;;;;;;;;;5063056;28;20112;-65
2023/12/17 21:17:19;;;;;;;21.05;10.57;;;;;;;;;;5063738;28;20040;-70
2023/12/17 21:21:04;;;;;;;19.00;10.55;;;;;;;;;;5064484;28;20043;-65
2023/12/17 21:24:43;;;;;;;18.73;9.68;;;;;;;;;;5067118;28;20127;-68
2023/12/17 21:28:27;;;;;;;21.85;11.05;;;;;;;;;;5065782;28;20589;-67
2023/12/17 21:32:05;;;;;;;18.80;10.45;;;;;;;;;;5059902;28;20503;-68
2023/12/17 21:35:46;;;;;;;23.83;10.70;;;;;;;;;;5064018;28;20094;-65
2023/12/17 21:39:27;;;;;;;18.67;9.93;;;;;;;;;;5060014;28;20052;-66
2023/12/17 21:43:12;;;;;;;21.50;10.32;;;;;;;;;;5067692;28;20040;-65
2023/12/17 21:46:52;;;;;;;18.17;9.85;;;;;;;;;;5059599;28;20408;-65